createdAt,value
2023-04-04T00:04:54.209Z,2.20
2023-04-04T00:09:51.383Z,1.80
2023-04-04T00:19:44.894Z,1.73
2023-04-04T00:24:42.290Z,2.70
2023-04-04T00:29:39.000Z,2.08
2023-04-04T00:34:36.598Z,1.85
2023-04-04T00:39:34.154Z,2.10
2023-04-04T00:44:32.379Z,1.90
2023-04-04T00:49:30.389Z,2.58
2023-04-04T00:54:27.261Z,1.90
2023-04-04T00:59:24.265Z,2.00
2023-04-04T01:04:22.898Z,2.10
2023-04-04T01:09:22.609Z,2.08
2023-04-04T01:14:19.453Z,1.83
2023-04-04T01:19:22.899Z,2.25
2023-04-04T01:24:24.979Z,1.83
2023-04-04T01:29:21.942Z,1.80
2023-04-04T01:35:03.954Z,2.30
2023-04-04T01:40:06.399Z,2.50
2023-04-04T01:45:03.191Z,2.30
2023-04-04T01:50:00.886Z,2.00
2023-04-04T01:55:00.923Z,2.05
2023-04-04T02:00:02.714Z,2.47
2023-04-04T02:05:05.609Z,1.88
2023-04-04T02:10:02.801Z,3.13
2023-04-04T02:15:12.171Z,2.30
2023-04-04T02:20:12.013Z,1.63
2023-04-04T02:25:09.092Z,1.92
2023-04-04T02:35:05.046Z,1.80
2023-04-04T02:40:08.636Z,2.72
2023-04-04T02:45:05.759Z,2.03
2023-04-04T02:55:07.889Z,1.83
2023-04-04T03:00:07.155Z,1.55
2023-04-04T03:05:04.217Z,1.90
2023-04-04T03:14:59.995Z,1.80
2023-04-04T03:19:56.761Z,1.40
2023-04-04T03:24:53.598Z,2.08
2023-04-04T03:29:50.826Z,1.67
2023-04-04T03:34:49.961Z,1.90
2023-04-04T03:39:47.144Z,2.03
2023-04-04T03:44:44.022Z,2.00
2023-04-04T03:49:43.870Z,1.83
2023-04-04T03:54:42.983Z,2.10
2023-04-04T03:59:39.747Z,2.08
2023-04-04T04:04:38.759Z,2.47
2023-04-04T04:09:37.653Z,1.88
2023-04-04T04:14:45.058Z,1.75
2023-04-04T04:19:47.392Z,2.58
2023-04-04T04:30:41.344Z,2.33
2023-04-04T04:35:40.095Z,2.10
2023-04-04T04:40:43.226Z,3.13
2023-04-04T04:45:44.847Z,2.33
2023-04-04T04:50:44.693Z,2.28
2023-04-04T04:55:46.200Z,2.53
2023-04-04T05:00:43.483Z,2.08
2023-04-04T05:05:40.434Z,2.30
2023-04-04T05:10:38.116Z,2.40
2023-04-04T05:15:35.537Z,3.40
2023-04-04T05:20:32.608Z,2.67
2023-04-04T05:30:26.169Z,2.55
2023-04-04T12:47:59.881Z,0.77
2023-04-04T12:53:18.441Z,0.90
2023-04-04T14:33:20.721Z,1.90
2023-04-04T14:38:19.665Z,1.40
2023-04-04T14:43:21.797Z,1.63
2023-04-04T14:48:18.827Z,1.50
2023-04-04T14:53:19.995Z,1.50
2023-04-04T14:58:18.044Z,1.50
2023-04-04T15:03:57.624Z,1.05
2023-04-04T15:13:54.025Z,1.30
2023-04-04T15:18:58.861Z,1.10
2023-04-04T15:23:57.879Z,1.20
2023-04-04T15:28:55.981Z,1.10
2023-04-04T15:33:59.377Z,1.00
2023-04-04T15:38:56.527Z,1.25
2023-04-04T15:43:53.497Z,1.27
2023-04-04T15:53:56.052Z,1.02
2023-04-04T16:09:13.540Z,1.15
2023-04-04T16:14:12.307Z,1.30
2023-04-04T16:19:11.759Z,1.33
2023-04-04T16:24:09.550Z,1.23
2023-04-04T16:29:06.399Z,1.20
2023-04-04T16:34:06.878Z,1.40
2023-04-04T19:28:31.016Z,2.97
2023-04-04T19:33:27.857Z,2.88
2023-04-04T19:38:28.326Z,3.22
2023-04-04T19:43:27.368Z,3.90
2023-04-04T19:48:49.846Z,3.28
2023-04-04T19:53:53.352Z,3.13
2023-04-04T19:58:58.041Z,2.92
2023-04-04T20:03:59.256Z,3.42
2023-04-04T20:08:57.409Z,3.88
2023-04-04T20:13:56.288Z,3.97
2023-04-04T20:18:53.274Z,3.80
2023-04-04T20:28:46.633Z,4.03
2023-04-04T20:33:43.730Z,5.50
2023-04-04T20:43:38.387Z,4.60
2023-04-04T20:48:37.750Z,4.47
2023-04-04T20:53:34.358Z,4.93
2023-04-04T20:58:31.177Z,4.65
2023-04-04T21:03:29.300Z,5.22
2023-04-04T21:08:26.966Z,5.90
2023-04-04T21:13:36.890Z,4.95
2023-04-04T21:18:33.767Z,4.82
2023-04-04T21:23:30.293Z,5.00
2023-04-04T21:28:32.261Z,5.20
2023-04-04T21:33:28.884Z,4.60
2023-04-04T21:38:35.319Z,4.85
2023-04-04T21:43:31.858Z,4.88
2023-04-04T21:48:28.409Z,4.95
2023-04-04T21:53:24.904Z,5.57
2023-04-04T21:58:21.573Z,4.75
2023-04-04T22:03:18.124Z,4.55
2023-04-04T22:08:14.597Z,5.32
2023-04-04T22:13:14.601Z,5.07
2023-04-04T22:18:14.694Z,5.13
2023-04-04T22:23:12.603Z,5.18
2023-04-04T22:28:09.318Z,4.63
2023-04-04T22:33:06.036Z,5.55
2023-04-04T22:38:03.078Z,6.25
2023-04-04T22:43:00.620Z,5.60
2023-04-04T22:48:01.948Z,5.25
2023-04-04T22:52:58.581Z,5.22
2023-04-04T22:57:55.252Z,5.85
2023-04-04T23:02:52.013Z,5.70
2023-04-04T23:07:52.833Z,5.70
2023-04-04T23:12:49.313Z,6.50
2023-04-04T23:17:46.551Z,6.85
2023-04-04T23:22:43.343Z,6.43
2023-04-04T23:27:40.377Z,6.35
2023-04-04T23:32:36.861Z,6.75
2023-04-04T23:37:33.498Z,6.50
2023-04-04T23:42:29.971Z,6.68
2023-04-04T23:47:26.551Z,7.43
2023-04-04T23:52:23.294Z,6.32
2023-04-04T23:57:19.823Z,7.05
